Terminal Aerodrome Forecast
Issued by NWS Green Bay, WI

Home | Current Version | Previous Version | Graphics & Text | Print | Product List | Glossary On
Versions: 1 2 3 4 5 6 7 8 9 10 11 12 13 14 15 16 17 18 19 20 21 22 23 24 25 26 27 28 29 30 31 32 33 34 35 36 37 38 39
000
FTUS43 KGRB 301100
TAFGRB
TAF
KGRB 301137Z 3012/3112 26013KT P6SM SKC
     FM302200 24008KT P6SM SCT070 BKN120
     FM310000 18005KT P6SM BKN060
     FM310300 07005KT P6SM BKN035
      TEMPO 3104/3106 5SM -RA BR BKN023
     FM310600 03010KT 6SM -RA SCT005 OVC010
      TEMPO 3106/3110 2SM -SN BKN005=

USA.gov is the U.S. government's official web portal to all federal, state and local government web resources and services.